sensor_id;sensor_type;location;lat;lon;timestamp;temperature;humidity
6462;DHT22;3264;42.862;25.098;2023-08-06T00:00:09;23.00;94.60
6462;DHT22;3264;42.862;25.098;2023-08-06T00:02:42;22.90;95.10
6462;DHT22;3264;42.862;25.098;2023-08-06T00:05:10;22.70;95.70
6462;DHT22;3264;42.862;25.098;2023-08-06T00:07:38;22.60;96.90
6462;DHT22;3264;42.862;25.098;2023-08-06T00:10:13;22.60;97.20
6462;DHT22;3264;42.862;25.098;2023-08-06T00:12:47;22.60;96.90
6462;DHT22;3264;42.862;25.098;2023-08-06T00:15:29;22.60;95.10
6462;DHT22;3264;42.862;25.098;2023-08-06T00:18:00;22.60;95.20
6462;DHT22;3264;42.862;25.098;2023-08-06T00:20:27;22.60;94.90
6462;DHT22;3264;42.862;25.098;2023-08-06T00:22:58;22.50;96.20
6462;DHT22;3264;42.862;25.098;2023-08-06T00:25:35;22.40;97.00
6462;DHT22;3264;42.862;25.098;2023-08-06T00:28:11;22.20;97.40
6462;DHT22;3264;42.862;25.098;2023-08-06T00:30:40;22.30;96.80
6462;DHT22;3264;42.862;25.098;2023-08-06T00:33:07;22.00;96.90
6462;DHT22;3264;42.862;25.098;2023-08-06T00:35:35;22.10;98.10
6462;DHT22;3264;42.862;25.098;2023-08-06T00:38:12;22.00;97.90
6462;DHT22;3264;42.862;25.098;2023-08-06T00:40:43;21.90;98.30
6462;DHT22;3264;42.862;25.098;2023-08-06T00:43:11;21.90;98.70
6462;DHT22;3264;42.862;25.098;2023-08-06T00:45:40;21.70;99.00
6462;DHT22;3264;42.862;25.098;2023-08-06T00:48:14;21.70;98.90
6462;DHT22;3264;42.862;25.098;2023-08-06T00:50:50;21.60;99.40
6462;DHT22;3264;42.862;25.098;2023-08-06T00:53:20;21.50;98.70
6462;DHT22;3264;42.862;25.098;2023-08-06T00:55:52;21.50;99.40
6462;DHT22;3264;42.862;25.098;2023-08-06T00:58:20;21.40;99.30
6462;DHT22;3264;42.862;25.098;2023-08-06T01:00:50;21.40;99.60
6462;DHT22;3264;42.862;25.098;2023-08-06T01:03:19;21.50;98.30
6462;DHT22;3264;42.862;25.098;2023-08-06T01:05:47;21.50;96.60
6462;DHT22;3264;42.862;25.098;2023-08-06T01:08:40;21.40;98.20
6462;DHT22;3264;42.862;25.098;2023-08-06T01:11:26;21.30;99.90
6462;DHT22;3264;42.862;25.098;2023-08-06T01:14:02;21.10;99.90
6462;DHT22;3264;42.862;25.098;2023-08-06T01:16:34;21.00;99.90
6462;DHT22;3264;42.862;25.098;2023-08-06T01:19:16;21.00;99.90
6462;DHT22;3264;42.862;25.098;2023-08-06T01:21:57;20.70;99.90
6462;DHT22;3264;42.862;25.098;2023-08-06T01:24:37;20.80;99.90
6462;DHT22;3264;42.862;25.098;2023-08-06T01:27:15;20.70;99.90
6462;DHT22;3264;42.862;25.098;2023-08-06T01:29:49;20.60;99.90
6462;DHT22;3264;42.862;25.098;2023-08-06T01:32:21;20.60;99.90
6462;DHT22;3264;42.862;25.098;2023-08-06T01:34:53;20.40;99.90
6462;DHT22;3264;42.862;25.098;2023-08-06T01:37:33;20.40;99.90
6462;DHT22;3264;42.862;25.098;2023-08-06T01:40:07;20.40;99.90
6462;DHT22;3264;42.862;25.098;2023-08-06T01:42:40;20.20;99.90
6462;DHT22;3264;42.862;25.098;2023-08-06T01:45:11;20.20;99.90
6462;DHT22;3264;42.862;25.098;2023-08-06T01:47:49;20.10;99.90
6462;DHT22;3264;42.862;25.098;2023-08-06T01:50:18;20.30;99.90
6462;DHT22;3264;42.862;25.098;2023-08-06T01:52:47;20.40;99.90
6462;DHT22;3264;42.862;25.098;2023-08-06T01:55:15;20.20;99.90
6462;DHT22;3264;42.862;25.098;2023-08-06T01:57:47;20.20;99.90
6462;DHT22;3264;42.862;25.098;2023-08-06T02:00:14;20.10;99.90
6462;DHT22;3264;42.862;25.098;2023-08-06T02:02:42;20.00;99.90
6462;DHT22;3264;42.862;25.098;2023-08-06T02:05:11;19.90;99.90
6462;DHT22;3264;42.862;25.098;2023-08-06T02:07:40;19.70;99.90
6462;DHT22;3264;42.862;25.098;2023-08-06T02:10:12;19.90;99.90
6462;DHT22;3264;42.862;25.098;2023-08-06T02:12:43;19.90;99.90
6462;DHT22;3264;42.862;25.098;2023-08-06T02:15:10;19.90;99.90
6462;DHT22;3264;42.862;25.098;2023-08-06T02:17:39;19.70;99.90
6462;DHT22;3264;42.862;25.098;2023-08-06T02:20:07;19.60;99.90
6462;DHT22;3264;42.862;25.098;2023-08-06T02:22:40;19.50;99.90
6462;DHT22;3264;42.862;25.098;2023-08-06T02:25:08;19.50;99.90
6462;DHT22;3264;42.862;25.098;2023-08-06T02:27:41;19.40;99.90
6462;DHT22;3264;42.862;25.098;2023-08-06T02:30:08;19.30;99.90
6462;DHT22;3264;42.862;25.098;2023-08-06T02:32:36;19.30;99.90
6462;DHT22;3264;42.862;25.098;2023-08-06T02:35:08;19.40;99.90
6462;DHT22;3264;42.862;25.098;2023-08-06T02:37:39;19.30;99.90
6462;DHT22;3264;42.862;25.098;2023-08-06T02:40:10;19.40;99.90
6462;DHT22;3264;42.862;25.098;2023-08-06T02:42:41;19.30;99.90
6462;DHT22;3264;42.862;25.098;2023-08-06T02:45:09;19.40;99.90
6462;DHT22;3264;42.862;25.098;2023-08-06T02:47:43;19.30;99.90
6462;DHT22;3264;42.862;25.098;2023-08-06T02:50:12;19.20;99.90
6462;DHT22;3264;42.862;25.098;2023-08-06T02:52:46;19.20;99.90
6462;DHT22;3264;42.862;25.098;2023-08-06T02:55:16;19.20;99.90
6462;DHT22;3264;42.862;25.098;2023-08-06T02:57:52;19.20;99.90
6462;DHT22;3264;42.862;25.098;2023-08-06T03:00:25;19.20;99.90
6462;DHT22;3264;42.862;25.098;2023-08-06T03:02:56;19.20;99.90
6462;DHT22;3264;42.862;25.098;2023-08-06T03:05:25;19.10;99.90
6462;DHT22;3264;42.862;25.098;2023-08-06T03:07:57;19.10;99.90
6462;DHT22;3264;42.862;25.098;2023-08-06T03:10:25;18.90;99.90
6462;DHT22;3264;42.862;25.098;2023-08-06T03:12:57;18.90;99.90
6462;DHT22;3264;42.862;25.098;2023-08-06T03:15:32;18.80;99.90
6462;DHT22;3264;42.862;25.098;2023-08-06T03:18:04;18.70;99.90
6462;DHT22;3264;42.862;25.098;2023-08-06T03:20:38;18.70;99.90
6462;DHT22;3264;42.862;25.098;2023-08-06T03:23:10;18.70;99.90
6462;DHT22;3264;42.862;25.098;2023-08-06T03:25:37;18.60;99.90
6462;DHT22;3264;42.862;25.098;2023-08-06T03:31:03;18.70;99.90
6462;DHT22;3264;42.862;25.098;2023-08-06T03:33:31;18.70;99.90
6462;DHT22;3264;42.862;25.098;2023-08-06T03:35:58;18.70;99.90
6462;DHT22;3264;42.862;25.098;2023-08-06T03:38:26;18.70;99.90
6462;DHT22;3264;42.862;25.098;2023-08-06T03:40:56;18.60;99.90
6462;DHT22;3264;42.862;25.098;2023-08-06T03:43:32;18.70;99.90
6462;DHT22;3264;42.862;25.098;2023-08-06T03:46:05;18.70;99.90
6462;DHT22;3264;42.862;25.098;2023-08-06T03:48:39;18.70;99.90
6462;DHT22;3264;42.862;25.098;2023-08-06T03:51:17;18.80;99.90
6462;DHT22;3264;42.862;25.098;2023-08-06T03:53:56;18.80;99.90
6462;DHT22;3264;42.862;25.098;2023-08-06T03:56:29;18.80;99.90
6462;DHT22;3264;42.862;25.098;2023-08-06T03:58:58;18.80;99.90
6462;DHT22;3264;42.862;25.098;2023-08-06T04:01:30;18.90;99.90
6462;DHT22;3264;42.862;25.098;2023-08-06T04:04:03;18.90;99.90
6462;DHT22;3264;42.862;25.098;2023-08-06T04:06:35;19.10;99.90
6462;DHT22;3264;42.862;25.098;2023-08-06T04:09:05;19.20;99.90
6462;DHT22;3264;42.862;25.098;2023-08-06T04:11:45;19.30;99.90
6462;DHT22;3264;42.862;25.098;2023-08-06T04:14:14;19.30;99.90
6462;DHT22;3264;42.862;25.098;2023-08-06T04:16:42;19.40;99.90
6462;DHT22;3264;42.862;25.098;2023-08-06T04:19:10;19.50;99.90
6462;DHT22;3264;42.862;25.098;2023-08-06T04:21:38;19.60;99.90
6462;DHT22;3264;42.862;25.098;2023-08-06T04:24:18;19.50;99.90
6462;DHT22;3264;42.862;25.098;2023-08-06T04:27:00;19.50;99.90
6462;DHT22;3264;42.862;25.098;2023-08-06T04:29:31;19.70;99.90
6462;DHT22;3264;42.862;25.098;2023-08-06T04:32:30;19.60;99.90
6462;DHT22;3264;42.862;25.098;2023-08-06T04:35:19;19.70;99.90
6462;DHT22;3264;42.862;25.098;2023-08-06T04:37:48;19.60;99.90
6462;DHT22;3264;42.862;25.098;2023-08-06T04:40:20;19.60;99.90
6462;DHT22;3264;42.862;25.098;2023-08-06T04:42:50;19.70;99.90
6462;DHT22;3264;42.862;25.098;2023-08-06T04:45:30;19.80;99.90
6462;DHT22;3264;42.862;25.098;2023-08-06T04:47:58;19.90;99.90
6462;DHT22;3264;42.862;25.098;2023-08-06T04:50:27;20.10;99.90
6462;DHT22;3264;42.862;25.098;2023-08-06T04:53:01;20.00;99.90
6462;DHT22;3264;42.862;25.098;2023-08-06T04:55:29;20.10;99.90
6462;DHT22;3264;42.862;25.098;2023-08-06T04:58:02;20.10;99.90
6462;DHT22;3264;42.862;25.098;2023-08-06T05:00:39;20.10;99.90
6462;DHT22;3264;42.862;25.098;2023-08-06T05:03:10;20.00;99.90
6462;DHT22;3264;42.862;25.098;2023-08-06T05:05:43;20.10;99.90
6462;DHT22;3264;42.862;25.098;2023-08-06T05:08:23;20.10;99.90
6462;DHT22;3264;42.862;25.098;2023-08-06T05:10:51;20.20;99.90
6462;DHT22;3264;42.862;25.098;2023-08-06T05:13:27;20.30;99.90
6462;DHT22;3264;42.862;25.098;2023-08-06T05:15:59;20.60;99.90
6462;DHT22;3264;42.862;25.098;2023-08-06T05:18:29;20.60;99.90
6462;DHT22;3264;42.862;25.098;2023-08-06T05:21:00;20.70;99.90
6462;DHT22;3264;42.862;25.098;2023-08-06T05:23:29;20.80;99.90
6462;DHT22;3264;42.862;25.098;2023-08-06T05:25:57;20.90;99.90
6462;DHT22;3264;42.862;25.098;2023-08-06T05:28:32;21.00;99.90
6462;DHT22;3264;42.862;25.098;2023-08-06T05:31:05;21.10;99.90
6462;DHT22;3264;42.862;25.098;2023-08-06T05:33:33;21.40;99.90
6462;DHT22;3264;42.862;25.098;2023-08-06T05:36:00;21.30;99.90
6462;DHT22;3264;42.862;25.098;2023-08-06T05:38:29;21.20;99.90
6462;DHT22;3264;42.862;25.098;2023-08-06T05:41:03;21.60;99.90
6462;DHT22;3264;42.862;25.098;2023-08-06T05:43:32;22.00;99.90
6462;DHT22;3264;42.862;25.098;2023-08-06T05:46:03;22.20;99.90
6462;DHT22;3264;42.862;25.098;2023-08-06T05:48:32;22.40;99.90
6462;DHT22;3264;42.862;25.098;2023-08-06T05:51:09;22.60;99.90
6462;DHT22;3264;42.862;25.098;2023-08-06T05:53:45;22.50;99.90
6462;DHT22;3264;42.862;25.098;2023-08-06T05:56:17;22.70;99.90
6462;DHT22;3264;42.862;25.098;2023-08-06T05:58:48;22.50;99.90
6462;DHT22;3264;42.862;25.098;2023-08-06T06:01:24;22.80;99.90
6462;DHT22;3264;42.862;25.098;2023-08-06T06:03:52;23.00;99.90
6462;DHT22;3264;42.862;25.098;2023-08-06T06:06:20;22.90;99.90
6462;DHT22;3264;42.862;25.098;2023-08-06T06:08:50;23.10;99.90
6462;DHT22;3264;42.862;25.098;2023-08-06T06:11:20;23.40;99.90
6462;DHT22;3264;42.862;25.098;2023-08-06T06:13:51;23.50;99.90
6462;DHT22;3264;42.862;25.098;2023-08-06T06:23:59;23.00;99.90
6462;DHT22;3264;42.862;25.098;2023-08-06T06:31:05;22.30;99.90
6462;DHT22;3264;42.862;25.098;2023-08-06T06:34:04;22.00;99.90
6462;DHT22;3264;42.862;25.098;2023-08-06T06:36:58;21.90;99.90
6462;DHT22;3264;42.862;25.098;2023-08-06T06:43:32;21.80;99.90
6462;DHT22;3264;42.862;25.098;2023-08-06T06:46:02;21.80;99.90
6462;DHT22;3264;42.862;25.098;2023-08-06T06:48:34;21.60;99.90
6462;DHT22;3264;42.862;25.098;2023-08-06T06:51:05;21.70;99.90
6462;DHT22;3264;42.862;25.098;2023-08-06T06:53:32;21.80;99.90
6462;DHT22;3264;42.862;25.098;2023-08-06T06:56:02;21.80;99.90
6462;DHT22;3264;42.862;25.098;2023-08-06T06:58:34;21.80;99.90
6462;DHT22;3264;42.862;25.098;2023-08-06T07:01:02;21.80;99.90
6462;DHT22;3264;42.862;25.098;2023-08-06T07:03:29;21.70;99.90
6462;DHT22;3264;42.862;25.098;2023-08-06T07:05:59;21.40;99.90
6462;DHT22;3264;42.862;25.098;2023-08-06T07:21:18;20.80;99.90
6462;DHT22;3264;42.862;25.098;2023-08-06T07:23:50;20.80;99.90
6462;DHT22;3264;42.862;25.098;2023-08-06T07:26:18;20.80;99.90
6462;DHT22;3264;42.862;25.098;2023-08-06T07:28:46;20.90;99.90
6462;DHT22;3264;42.862;25.098;2023-08-06T07:31:19;21.00;99.90
6462;DHT22;3264;42.862;25.098;2023-08-06T07:33:50;21.00;99.90
6462;DHT22;3264;42.862;25.098;2023-08-06T07:36:23;21.00;99.90
6462;DHT22;3264;42.862;25.098;2023-08-06T07:38:54;21.00;99.90
6462;DHT22;3264;42.862;25.098;2023-08-06T07:41:22;20.80;99.90
6462;DHT22;3264;42.862;25.098;2023-08-06T07:43:50;20.90;99.90
6462;DHT22;3264;42.862;25.098;2023-08-06T07:46:23;20.80;99.90
6462;DHT22;3264;42.862;25.098;2023-08-06T07:48:52;20.80;99.90
6462;DHT22;3264;42.862;25.098;2023-08-06T07:51:19;20.50;99.90
6462;DHT22;3264;42.862;25.098;2023-08-06T07:53:48;20.50;99.90
6462;DHT22;3264;42.862;25.098;2023-08-06T07:56:22;20.60;99.90
6462;DHT22;3264;42.862;25.098;2023-08-06T07:58:58;20.60;99.90
6462;DHT22;3264;42.862;25.098;2023-08-06T08:01:30;20.80;99.90
6462;DHT22;3264;42.862;25.098;2023-08-06T08:03:58;20.90;99.90
6462;DHT22;3264;42.862;25.098;2023-08-06T08:10:56;20.90;99.90
6462;DHT22;3264;42.862;25.098;2023-08-06T08:13:25;21.00;99.90
6462;DHT22;3264;42.862;25.098;2023-08-06T08:16:00;21.60;99.90
6462;DHT22;3264;42.862;25.098;2023-08-06T08:18:29;21.80;99.90
6462;DHT22;3264;42.862;25.098;2023-08-06T08:21:04;21.90;99.90
6462;DHT22;3264;42.862;25.098;2023-08-06T08:23:37;22.10;99.90
6462;DHT22;3264;42.862;25.098;2023-08-06T08:26:09;22.30;99.90
6462;DHT22;3264;42.862;25.098;2023-08-06T08:28:37;22.00;99.90
6462;DHT22;3264;42.862;25.098;2023-08-06T08:31:10;22.00;99.90
6462;DHT22;3264;42.862;25.098;2023-08-06T08:33:42;22.20;99.90
6462;DHT22;3264;42.862;25.098;2023-08-06T08:36:11;22.20;99.90
6462;DHT22;3264;42.862;25.098;2023-08-06T08:38:39;22.00;99.90
6462;DHT22;3264;42.862;25.098;2023-08-06T08:41:27;22.20;99.90
6462;DHT22;3264;42.862;25.098;2023-08-06T08:43:56;23.00;99.90
6462;DHT22;3264;42.862;25.098;2023-08-06T08:46:34;23.20;99.90
6462;DHT22;3264;42.862;25.098;2023-08-06T08:49:06;23.30;99.90
6462;DHT22;3264;42.862;25.098;2023-08-06T08:52:03;23.40;99.90
6462;DHT22;3264;42.862;25.098;2023-08-06T08:55:12;23.60;99.90
6462;DHT22;3264;42.862;25.098;2023-08-06T08:57:46;23.50;99.90
6462;DHT22;3264;42.862;25.098;2023-08-06T09:00:17;23.30;99.90
6462;DHT22;3264;42.862;25.098;2023-08-06T09:02:45;23.10;99.90
6462;DHT22;3264;42.862;25.098;2023-08-06T09:05:16;22.80;99.90
6462;DHT22;3264;42.862;25.098;2023-08-06T09:07:48;22.50;99.90
6462;DHT22;3264;42.862;25.098;2023-08-06T09:10:17;22.30;99.90
6462;DHT22;3264;42.862;25.098;2023-08-06T09:12:48;22.00;99.90
6462;DHT22;3264;42.862;25.098;2023-08-06T09:15:20;21.90;99.90
6462;DHT22;3264;42.862;25.098;2023-08-06T09:17:53;21.90;99.90
6462;DHT22;3264;42.862;25.098;2023-08-06T09:20:24;21.90;99.90
6462;DHT22;3264;42.862;25.098;2023-08-06T09:22:53;21.90;99.90
6462;DHT22;3264;42.862;25.098;2023-08-06T09:25:27;21.90;99.90
6462;DHT22;3264;42.862;25.098;2023-08-06T09:28:05;21.90;99.90
6462;DHT22;3264;42.862;25.098;2023-08-06T09:44:38;21.10;99.90
6462;DHT22;3264;42.862;25.098;2023-08-06T09:47:24;20.90;99.90
6462;DHT22;3264;42.862;25.098;2023-08-06T09:49:52;20.80;99.90
6462;DHT22;3264;42.862;25.098;2023-08-06T09:52:24;20.70;99.90
6462;DHT22;3264;42.862;25.098;2023-08-06T09:55:04;20.50;99.90
6462;DHT22;3264;42.862;25.098;2023-08-06T09:57:32;20.40;99.90
6462;DHT22;3264;42.862;25.098;2023-08-06T10:00:02;20.10;99.90
6462;DHT22;3264;42.862;25.098;2023-08-06T10:02:32;19.70;99.90
6462;DHT22;3264;42.862;25.098;2023-08-06T10:05:01;19.40;99.90
6462;DHT22;3264;42.862;25.098;2023-08-06T10:07:30;19.30;99.90
6462;DHT22;3264;42.862;25.098;2023-08-06T10:09:59;19.30;99.90
6462;DHT22;3264;42.862;25.098;2023-08-06T10:12:29;19.30;99.90
6462;DHT22;3264;42.862;25.098;2023-08-06T10:15:06;19.30;99.90
6462;DHT22;3264;42.862;25.098;2023-08-06T10:17:41;19.00;99.90
6462;DHT22;3264;42.862;25.098;2023-08-06T10:20:11;19.00;99.90
6462;DHT22;3264;42.862;25.098;2023-08-06T10:22:43;19.10;99.90
6462;DHT22;3264;42.862;25.098;2023-08-06T10:25:16;19.10;99.90
6462;DHT22;3264;42.862;25.098;2023-08-06T10:27:56;19.20;99.90
6462;DHT22;3264;42.862;25.098;2023-08-06T10:30:30;19.40;99.90
6462;DHT22;3264;42.862;25.098;2023-08-06T10:33:02;19.40;99.90
6462;DHT22;3264;42.862;25.098;2023-08-06T10:35:31;19.30;99.90
6462;DHT22;3264;42.862;25.098;2023-08-06T10:38:14;19.40;99.90
6462;DHT22;3264;42.862;25.098;2023-08-06T10:40:49;19.60;99.90
6462;DHT22;3264;42.862;25.098;2023-08-06T10:43:32;19.70;99.90
6462;DHT22;3264;42.862;25.098;2023-08-06T10:46:11;19.70;99.90
6462;DHT22;3264;42.862;25.098;2023-08-06T10:48:40;19.80;99.90
6462;DHT22;3264;42.862;25.098;2023-08-06T10:51:10;20.00;99.90
6462;DHT22;3264;42.862;25.098;2023-08-06T10:53:42;20.20;99.90
6462;DHT22;3264;42.862;25.098;2023-08-06T10:56:15;20.40;99.90
6462;DHT22;3264;42.862;25.098;2023-08-06T10:58:48;20.30;99.90
6462;DHT22;3264;42.862;25.098;2023-08-06T11:01:35;20.80;99.90
6462;DHT22;3264;42.862;25.098;2023-08-06T11:04:05;21.00;99.90
6462;DHT22;3264;42.862;25.098;2023-08-06T11:06:32;21.20;99.90
6462;DHT22;3264;42.862;25.098;2023-08-06T11:09:09;21.30;99.90
6462;DHT22;3264;42.862;25.098;2023-08-06T11:11:46;21.30;99.90
6462;DHT22;3264;42.862;25.098;2023-08-06T11:14:15;20.80;99.90
6462;DHT22;3264;42.862;25.098;2023-08-06T11:16:50;21.70;99.90
6462;DHT22;3264;42.862;25.098;2023-08-06T11:19:18;21.20;99.90
6462;DHT22;3264;42.862;25.098;2023-08-06T11:21:51;20.90;99.90
6462;DHT22;3264;42.862;25.098;2023-08-06T11:24:19;22.10;99.90
6462;DHT22;3264;42.862;25.098;2023-08-06T11:26:48;21.60;99.90
6462;DHT22;3264;42.862;25.098;2023-08-06T11:29:19;22.50;99.90
6462;DHT22;3264;42.862;25.098;2023-08-06T11:31:53;22.50;99.90
6462;DHT22;3264;42.862;25.098;2023-08-06T11:34:39;23.10;99.90
6462;DHT22;3264;42.862;25.098;2023-08-06T11:37:10;23.00;99.90
6462;DHT22;3264;42.862;25.098;2023-08-06T11:39:48;23.90;99.90
6462;DHT22;3264;42.862;25.098;2023-08-06T11:42:23;24.10;99.90
6462;DHT22;3264;42.862;25.098;2023-08-06T11:44:57;24.30;99.90
6462;DHT22;3264;42.862;25.098;2023-08-06T11:47:31;24.50;99.90
6462;DHT22;3264;42.862;25.098;2023-08-06T11:50:26;24.10;99.90
6462;DHT22;3264;42.862;25.098;2023-08-06T11:52:56;23.90;99.90
6462;DHT22;3264;42.862;25.098;2023-08-06T11:55:26;23.70;99.90
6462;DHT22;3264;42.862;25.098;2023-08-06T11:57:57;24.10;99.90
6462;DHT22;3264;42.862;25.098;2023-08-06T12:00:27;24.20;99.90
6462;DHT22;3264;42.862;25.098;2023-08-06T12:02:56;24.20;99.90
6462;DHT22;3264;42.862;25.098;2023-08-06T12:05:29;24.10;99.90
6462;DHT22;3264;42.862;25.098;2023-08-06T12:08:00;23.70;99.90
6462;DHT22;3264;42.862;25.098;2023-08-06T12:10:35;23.50;99.90
6462;DHT22;3264;42.862;25.098;2023-08-06T12:13:06;23.90;99.90
6462;DHT22;3264;42.862;25.098;2023-08-06T12:15:45;24.00;99.90
6462;DHT22;3264;42.862;25.098;2023-08-06T12:18:15;24.70;99.90
6462;DHT22;3264;42.862;25.098;2023-08-06T12:20:43;25.40;99.90
6462;DHT22;3264;42.862;25.098;2023-08-06T12:23:14;25.50;99.90
6462;DHT22;3264;42.862;25.098;2023-08-06T12:25:44;25.20;99.90
6462;DHT22;3264;42.862;25.098;2023-08-06T12:28:12;26.40;99.90
6462;DHT22;3264;42.862;25.098;2023-08-06T12:30:41;25.40;99.90
6462;DHT22;3264;42.862;25.098;2023-08-06T12:33:11;26.20;99.90
6462;DHT22;3264;42.862;25.098;2023-08-06T12:35:41;26.10;99.90
6462;DHT22;3264;42.862;25.098;2023-08-06T12:38:10;25.90;99.90
6462;DHT22;3264;42.862;25.098;2023-08-06T12:40:39;26.10;99.90
6462;DHT22;3264;42.862;25.098;2023-08-06T12:43:09;26.30;99.90
6462;DHT22;3264;42.862;25.098;2023-08-06T12:45:37;26.70;99.90
6462;DHT22;3264;42.862;25.098;2023-08-06T12:48:08;26.00;99.90
6462;DHT22;3264;42.862;25.098;2023-08-06T12:50:37;26.20;99.90
6462;DHT22;3264;42.862;25.098;2023-08-06T12:53:16;25.70;99.90
6462;DHT22;3264;42.862;25.098;2023-08-06T12:55:48;25.90;99.90
6462;DHT22;3264;42.862;25.098;2023-08-06T12:58:19;26.40;99.90
6462;DHT22;3264;42.862;25.098;2023-08-06T13:00:50;26.30;99.90
6462;DHT22;3264;42.862;25.098;2023-08-06T13:03:24;26.60;99.90
6462;DHT22;3264;42.862;25.098;2023-08-06T13:05:54;26.50;99.90
6462;DHT22;3264;42.862;25.098;2023-08-06T13:08:27;26.10;99.90
6462;DHT22;3264;42.862;25.098;2023-08-06T13:10:55;26.00;99.90
6462;DHT22;3264;42.862;25.098;2023-08-06T13:13:25;25.50;99.90
6462;DHT22;3264;42.862;25.098;2023-08-06T13:16:09;25.30;99.90
6462;DHT22;3264;42.862;25.098;2023-08-06T13:18:41;25.90;99.90
6462;DHT22;3264;42.862;25.098;2023-08-06T13:21:17;26.10;99.90
6462;DHT22;3264;42.862;25.098;2023-08-06T13:23:58;25.40;99.90
6462;DHT22;3264;42.862;25.098;2023-08-06T13:26:50;25.50;99.90
6462;DHT22;3264;42.862;25.098;2023-08-06T13:29:17;25.60;99.90
6462;DHT22;3264;42.862;25.098;2023-08-06T13:31:51;25.70;99.90
6462;DHT22;3264;42.862;25.098;2023-08-06T13:34:21;26.00;99.90
6462;DHT22;3264;42.862;25.098;2023-08-06T13:36:53;26.10;99.90
6462;DHT22;3264;42.862;25.098;2023-08-06T13:39:26;26.40;99.90
6462;DHT22;3264;42.862;25.098;2023-08-06T13:41:54;26.50;99.70
6462;DHT22;3264;42.862;25.098;2023-08-06T13:44:34;26.20;99.90
6462;DHT22;3264;42.862;25.098;2023-08-06T13:47:06;26.00;99.80
6462;DHT22;3264;42.862;25.098;2023-08-06T13:49:36;25.60;99.90
6462;DHT22;3264;42.862;25.098;2023-08-06T13:52:09;25.40;99.90
6462;DHT22;3264;42.862;25.098;2023-08-06T13:54:38;25.30;99.90
6462;DHT22;3264;42.862;25.098;2023-08-06T13:57:06;25.10;99.90
6462;DHT22;3264;42.862;25.098;2023-08-06T13:59:42;25.40;99.90
6462;DHT22;3264;42.862;25.098;2023-08-06T14:02:09;25.40;99.90
6462;DHT22;3264;42.862;25.098;2023-08-06T14:04:37;25.20;99.90
6462;DHT22;3264;42.862;25.098;2023-08-06T14:07:08;25.30;99.90
6462;DHT22;3264;42.862;25.098;2023-08-06T14:09:44;25.40;99.90
6462;DHT22;3264;42.862;25.098;2023-08-06T14:12:15;25.30;99.90
6462;DHT22;3264;42.862;25.098;2023-08-06T14:14:44;25.30;99.90
6462;DHT22;3264;42.862;25.098;2023-08-06T14:17:16;25.20;99.90
6462;DHT22;3264;42.862;25.098;2023-08-06T14:19:59;25.50;99.90
6462;DHT22;3264;42.862;25.098;2023-08-06T14:22:36;25.70;99.90
6462;DHT22;3264;42.862;25.098;2023-08-06T14:25:10;25.70;99.90
6462;DHT22;3264;42.862;25.098;2023-08-06T14:27:43;25.70;99.90
6462;DHT22;3264;42.862;25.098;2023-08-06T14:30:11;25.80;99.90
6462;DHT22;3264;42.862;25.098;2023-08-06T14:32:39;25.60;99.90
6462;DHT22;3264;42.862;25.098;2023-08-06T14:35:09;25.60;99.90
6462;DHT22;3264;42.862;25.098;2023-08-06T14:37:37;25.20;99.90
6462;DHT22;3264;42.862;25.098;2023-08-06T14:40:11;25.00;99.90
6462;DHT22;3264;42.862;25.098;2023-08-06T14:42:43;25.20;99.90
6462;DHT22;3264;42.862;25.098;2023-08-06T14:45:12;25.70;99.90
6462;DHT22;3264;42.862;25.098;2023-08-06T14:47:48;25.60;99.90
6462;DHT22;3264;42.862;25.098;2023-08-06T14:50:16;25.70;99.90
6462;DHT22;3264;42.862;25.098;2023-08-06T14:52:45;25.80;99.90
6462;DHT22;3264;42.862;25.098;2023-08-06T14:55:23;26.00;99.90
6462;DHT22;3264;42.862;25.098;2023-08-06T14:57:54;26.00;99.90
6462;DHT22;3264;42.862;25.098;2023-08-06T15:00:25;25.80;99.90
6462;DHT22;3264;42.862;25.098;2023-08-06T15:02:53;25.90;99.90
6462;DHT22;3264;42.862;25.098;2023-08-06T15:05:24;25.90;99.90
6462;DHT22;3264;42.862;25.098;2023-08-06T15:07:54;26.10;98.50
6462;DHT22;3264;42.862;25.098;2023-08-06T15:10:26;26.00;99.90
6462;DHT22;3264;42.862;25.098;2023-08-06T15:12:54;25.80;99.90
6462;DHT22;3264;42.862;25.098;2023-08-06T15:15:26;25.40;99.90
6462;DHT22;3264;42.862;25.098;2023-08-06T15:17:54;25.00;99.90
6462;DHT22;3264;42.862;25.098;2023-08-06T15:20:28;24.80;99.90
6462;DHT22;3264;42.862;25.098;2023-08-06T15:23:07;24.70;99.90
6462;DHT22;3264;42.862;25.098;2023-08-06T15:25:36;25.00;99.90
6462;DHT22;3264;42.862;25.098;2023-08-06T15:28:10;25.20;99.90
6462;DHT22;3264;42.862;25.098;2023-08-06T15:30:40;25.20;99.90
6462;DHT22;3264;42.862;25.098;2023-08-06T15:33:12;25.20;99.90
6462;DHT22;3264;42.862;25.098;2023-08-06T15:35:40;25.20;99.90
6462;DHT22;3264;42.862;25.098;2023-08-06T15:38:08;25.00;99.90
6462;DHT22;3264;42.862;25.098;2023-08-06T15:40:40;25.10;99.90
6462;DHT22;3264;42.862;25.098;2023-08-06T15:43:09;25.00;99.90
6462;DHT22;3264;42.862;25.098;2023-08-06T15:45:44;24.90;99.90
6462;DHT22;3264;42.862;25.098;2023-08-06T15:48:15;24.80;99.90
6462;DHT22;3264;42.862;25.098;2023-08-06T15:50:47;24.60;99.90
6462;DHT22;3264;42.862;25.098;2023-08-06T15:53:15;24.60;99.90
6462;DHT22;3264;42.862;25.098;2023-08-06T15:55:49;24.60;99.90
6462;DHT22;3264;42.862;25.098;2023-08-06T15:58:19;24.50;99.90
6462;DHT22;3264;42.862;25.098;2023-08-06T16:00:49;24.30;99.90
6462;DHT22;3264;42.862;25.098;2023-08-06T16:03:20;24.30;99.90
6462;DHT22;3264;42.862;25.098;2023-08-06T16:05:47;24.30;99.90
6462;DHT22;3264;42.862;25.098;2023-08-06T16:08:15;24.20;99.90
6462;DHT22;3264;42.862;25.098;2023-08-06T16:10:44;24.00;99.90
6462;DHT22;3264;42.862;25.098;2023-08-06T16:13:16;24.00;99.90
6462;DHT22;3264;42.862;25.098;2023-08-06T16:15:49;23.90;99.90
6462;DHT22;3264;42.862;25.098;2023-08-06T16:18:19;23.80;99.90
6462;DHT22;3264;42.862;25.098;2023-08-06T16:20:46;23.60;99.90
6462;DHT22;3264;42.862;25.098;2023-08-06T16:23:22;23.60;99.90
6462;DHT22;3264;42.862;25.098;2023-08-06T16:25:54;23.40;99.90
6462;DHT22;3264;42.862;25.098;2023-08-06T16:28:21;23.20;99.90
6462;DHT22;3264;42.862;25.098;2023-08-06T16:30:56;23.00;99.90
6462;DHT22;3264;42.862;25.098;2023-08-06T16:33:24;22.80;99.90
6462;DHT22;3264;42.862;25.098;2023-08-06T16:35:52;22.70;99.90
6462;DHT22;3264;42.862;25.098;2023-08-06T16:38:20;22.60;99.90
6462;DHT22;3264;42.862;25.098;2023-08-06T16:41:00;22.50;99.90
6462;DHT22;3264;42.862;25.098;2023-08-06T16:43:33;22.30;99.90
6462;DHT22;3264;42.862;25.098;2023-08-06T16:46:01;22.40;99.90
6462;DHT22;3264;42.862;25.098;2023-08-06T16:48:29;22.50;99.90
6462;DHT22;3264;42.862;25.098;2023-08-06T16:51:03;22.40;99.90
6462;DHT22;3264;42.862;25.098;2023-08-06T16:53:30;22.20;99.90
6462;DHT22;3264;42.862;25.098;2023-08-06T16:56:09;22.00;99.90
6462;DHT22;3264;42.862;25.098;2023-08-06T16:58:39;22.00;99.90
6462;DHT22;3264;42.862;25.098;2023-08-06T17:01:07;22.00;99.90
6462;DHT22;3264;42.862;25.098;2023-08-06T17:03:39;22.00;99.90
6462;DHT22;3264;42.862;25.098;2023-08-06T17:06:13;21.90;99.90